Terminal Aerodrome Forecast
Issued by NWS Grand Forks, ND

Home | Current Version | Previous Version | Graphics & Text | Print | Product List | Glossary On
Versions: 1 2 3 4 5 6 7 8 9 10 11 12 13 14 15 16 17 18 19 20 21 22
915
FTUS43 KFGF 151040 AAA
TAFGFK
TAF AMD
KGFK 151040Z 1511/1606 VRB03KT P6SM SCT250
      TEMPO 1511/1513 3SM BR
     FM151400 16007KT P6SM BKN250=

USA.gov is the U.S. government's official web portal to all federal, state and local government web resources and services.